createdAt,value
2018-01-18T00:01:27.180Z,100.00
2018-01-18T00:03:54.702Z,100.00
2018-01-18T00:06:22.206Z,100.00
2018-01-18T00:08:49.714Z,100.00
2018-01-18T00:11:17.214Z,100.00
2018-01-18T00:13:44.728Z,100.00
2018-01-18T00:16:12.220Z,100.00
2018-01-18T00:18:39.734Z,100.00
2018-01-18T00:21:07.257Z,100.00
2018-01-18T00:23:34.779Z,100.00
2018-01-18T00:26:02.289Z,100.00
2018-01-18T00:28:29.794Z,100.00
2018-01-18T00:30:57.306Z,100.00
2018-01-18T00:33:25.680Z,100.00
2018-01-18T00:35:53.184Z,100.00
2018-01-18T00:38:20.697Z,100.00
2018-01-18T00:40:48.210Z,100.00
2018-01-18T00:43:15.702Z,100.00
2018-01-18T00:45:43.184Z,100.00
2018-01-18T00:48:10.675Z,100.00
2018-01-18T00:50:38.183Z,100.00
2018-01-18T00:53:05.764Z,100.00
2018-01-18T00:55:33.262Z,100.00
2018-01-18T00:58:00.740Z,100.00
2018-01-18T01:00:28.239Z,100.00
2018-01-18T01:02:55.778Z,99.74
2018-01-18T01:05:26.200Z,100.00
2018-01-18T01:07:53.718Z,100.00
2018-01-18T01:10:21.214Z,99.51
2018-01-18T01:12:48.736Z,99.43
2018-01-18T01:15:16.224Z,99.93
2018-01-18T01:17:44.519Z,100.00
2018-01-18T01:20:12.258Z,99.71
2018-01-18T01:22:39.752Z,99.25
2018-01-18T01:25:07.256Z,99.48
2018-01-18T01:27:34.763Z,99.61
2018-01-18T01:30:02.279Z,99.08
2018-01-18T01:32:29.760Z,98.57
2018-01-18T01:34:57.258Z,98.71
2018-01-18T01:37:24.755Z,98.46
2018-01-18T01:39:52.254Z,99.30
2018-01-18T01:42:19.767Z,99.90
2018-01-18T01:44:47.266Z,99.33
2018-01-18T01:47:14.794Z,99.53
2018-01-18T01:49:42.281Z,98.87
2018-01-18T01:52:09.770Z,98.53
2018-01-18T01:54:37.271Z,98.24
2018-01-18T01:57:04.755Z,98.16
2018-01-18T01:59:32.282Z,98.67
2018-01-18T02:01:59.815Z,99.51
2018-01-18T02:04:27.326Z,99.76
2018-01-18T02:06:54.842Z,99.65
2018-01-18T02:09:22.328Z,99.16
2018-01-18T02:11:49.889Z,98.81
2018-01-18T02:14:17.393Z,98.96
2018-01-18T02:16:44.927Z,98.74
2018-01-18T02:19:12.444Z,98.14
2018-01-18T02:21:39.979Z,97.96
2018-01-18T02:24:07.464Z,98.06
2018-01-18T02:26:34.948Z,98.14
2018-01-18T02:29:02.438Z,98.53
2018-01-18T02:31:29.946Z,98.52
2018-01-18T02:33:57.439Z,97.71
2018-01-18T02:36:24.974Z,98.17
2018-01-18T02:38:52.453Z,98.15
2018-01-18T02:41:19.976Z,97.09
2018-01-18T02:43:48.350Z,97.30
2018-01-18T02:46:15.852Z,98.19
2018-01-18T02:48:43.350Z,98.18
2018-01-18T02:51:10.845Z,97.13
2018-01-18T02:53:38.344Z,98.09
2018-01-18T02:56:06.189Z,98.09
2018-01-18T02:58:33.681Z,97.71
2018-01-18T03:01:01.188Z,98.17
2018-01-18T03:03:28.678Z,97.02
2018-01-18T03:05:56.170Z,97.26
2018-01-18T03:08:23.656Z,97.21
2018-01-18T03:10:51.137Z,96.37
2018-01-18T03:13:18.710Z,97.44
2018-01-18T03:15:46.188Z,97.52
2018-01-18T03:18:13.694Z,97.18
2018-01-18T03:20:41.228Z,96.99
2018-01-18T03:23:08.742Z,97.92
2018-01-18T03:25:36.260Z,98.52
2018-01-18T03:28:03.767Z,98.67
2018-01-18T03:30:31.271Z,98.10
2018-01-18T03:32:58.848Z,98.21
2018-01-18T03:35:26.358Z,98.36
2018-01-18T03:37:53.862Z,97.54
2018-01-18T03:40:21.370Z,98.23
2018-01-18T03:42:48.894Z,99.46
2018-01-18T03:45:16.385Z,98.07
2018-01-18T03:47:43.870Z,97.25
2018-01-18T03:50:11.349Z,97.88
2018-01-18T03:52:38.830Z,98.59
2018-01-18T03:55:06.308Z,97.27
2018-01-18T03:57:33.800Z,96.90
2018-01-18T04:00:01.287Z,96.84
2018-01-18T04:02:28.779Z,96.99
2018-01-18T04:04:56.267Z,97.03
2018-01-18T04:07:26.942Z,97.50
2018-01-18T04:09:54.680Z,98.36
2018-01-18T04:12:22.180Z,96.38
2018-01-18T04:14:49.664Z,96.36
2018-01-18T04:17:17.158Z,97.19
2018-01-18T04:19:44.656Z,96.76
2018-01-18T04:22:12.160Z,97.99
2018-01-18T04:24:39.664Z,96.87
2018-01-18T04:27:07.153Z,95.99
2018-01-18T04:29:34.636Z,97.42
2018-01-18T04:32:02.176Z,96.75
2018-01-18T04:34:29.652Z,96.76
2018-01-18T04:36:57.166Z,97.02
2018-01-18T04:39:24.706Z,97.72
2018-01-18T04:41:52.188Z,96.25
2018-01-18T04:44:19.699Z,95.65
2018-01-18T04:46:47.192Z,96.32
2018-01-18T04:49:14.693Z,96.64
2018-01-18T04:51:42.201Z,95.82
2018-01-18T04:54:09.697Z,96.59
2018-01-18T04:56:37.193Z,95.69
2018-01-18T04:59:04.711Z,95.93
2018-01-18T05:01:32.194Z,95.45
2018-01-18T05:03:59.704Z,95.15
2018-01-18T05:06:27.196Z,95.91
2018-01-18T05:08:54.696Z,95.44
2018-01-18T05:11:22.214Z,94.38
2018-01-18T05:13:49.715Z,93.17
2018-01-18T05:16:17.214Z,95.87
2018-01-18T05:18:44.732Z,95.03
2018-01-18T05:21:12.230Z,95.90
2018-01-18T05:23:39.755Z,95.14
2018-01-18T05:26:07.246Z,93.89
2018-01-18T05:28:34.770Z,94.03
2018-01-18T05:31:02.266Z,92.64
2018-01-18T05:33:29.760Z,93.87
2018-01-18T05:35:57.240Z,92.77
2018-01-18T05:38:24.722Z,93.60
2018-01-18T05:40:52.213Z,93.53
2018-01-18T05:43:19.727Z,93.79
2018-01-18T05:45:47.232Z,94.21
2018-01-18T05:48:14.734Z,92.66
2018-01-18T05:50:42.293Z,94.41
2018-01-18T05:53:09.808Z,93.55
2018-01-18T05:55:37.370Z,94.27
2018-01-18T05:58:04.879Z,92.91
2018-01-18T06:00:32.391Z,94.08
2018-01-18T06:02:59.894Z,92.77
2018-01-18T06:05:27.414Z,93.87
2018-01-18T06:07:54.894Z,94.02
2018-01-18T06:10:22.390Z,93.35
2018-01-18T06:12:49.880Z,92.15
2018-01-18T06:15:17.376Z,92.22
2018-01-18T06:17:44.883Z,93.38
2018-01-18T06:20:12.356Z,92.52
2018-01-18T06:22:39.861Z,93.37
2018-01-18T06:25:07.348Z,92.57
2018-01-18T06:27:34.842Z,93.65
2018-01-18T06:30:02.328Z,92.35
2018-01-18T06:32:29.836Z,92.76
2018-01-18T06:34:57.399Z,93.29
2018-01-18T06:37:24.918Z,92.40
2018-01-18T06:39:52.422Z,93.58
2018-01-18T06:42:19.912Z,92.90
2018-01-18T06:44:48.122Z,92.55
2018-01-18T06:47:15.668Z,93.59
2018-01-18T06:49:43.196Z,92.80
2018-01-18T06:52:10.701Z,94.05
2018-01-18T06:54:38.204Z,93.80
2018-01-18T06:57:05.702Z,93.88
2018-01-18T06:59:33.242Z,95.51
2018-01-18T07:02:00.769Z,95.67
2018-01-18T07:04:28.261Z,95.67
2018-01-18T07:06:55.783Z,96.13
2018-01-18T07:09:23.265Z,95.00
2018-01-18T07:11:50.784Z,96.62
2018-01-18T07:14:18.308Z,96.64
2018-01-18T07:16:45.856Z,97.04
2018-01-18T07:19:13.363Z,98.38
2018-01-18T07:21:40.880Z,97.07
2018-01-18T07:24:08.379Z,97.57
2018-01-18T07:26:35.868Z,96.98
2018-01-18T07:29:03.388Z,97.75
2018-01-18T07:31:30.900Z,97.90
2018-01-18T07:33:58.430Z,99.44
2018-01-18T07:36:25.935Z,100.00
2018-01-18T07:38:53.458Z,99.79
2018-01-18T07:41:20.978Z,100.00
2018-01-18T07:43:48.499Z,100.00
2018-01-18T07:46:16.000Z,100.00
2018-01-18T07:48:43.500Z,100.00
2018-01-18T07:51:11.005Z,100.00
2018-01-18T07:53:39.224Z,100.00
2018-01-18T07:56:06.727Z,100.00
2018-01-18T07:58:34.225Z,100.00
2018-01-18T08:01:01.737Z,100.00
2018-01-18T08:03:34.750Z,100.00
2018-01-18T08:06:02.250Z,100.00
2018-01-18T08:08:29.731Z,100.00
2018-01-18T08:10:57.282Z,100.00
2018-01-18T08:13:24.828Z,100.00
2018-01-18T08:15:52.312Z,100.00
2018-01-18T08:18:19.820Z,100.00
2018-01-18T08:20:47.304Z,100.00
2018-01-18T08:23:14.791Z,100.00
2018-01-18T08:25:42.295Z,100.00
2018-01-18T08:28:09.811Z,100.00
2018-01-18T08:30:37.320Z,100.00
2018-01-18T08:33:04.841Z,100.00
2018-01-18T08:35:32.342Z,100.00
2018-01-18T08:37:59.847Z,100.00
2018-01-18T08:40:27.349Z,100.00
2018-01-18T08:42:54.862Z,100.00
2018-01-18T08:45:22.349Z,98.94
2018-01-18T08:47:49.854Z,98.24
2018-01-18T08:50:17.348Z,96.83
2018-01-18T08:52:44.875Z,97.93
2018-01-18T08:55:12.346Z,98.57
2018-01-18T08:57:39.829Z,99.62
2018-01-18T09:00:07.327Z,98.58
2018-01-18T09:02:34.872Z,99.43
2018-01-18T09:05:03.169Z,98.75
2018-01-18T09:07:30.641Z,98.79
2018-01-18T09:09:58.131Z,98.31
2018-01-18T09:12:27.130Z,98.40
2018-01-18T09:14:54.656Z,99.50
2018-01-18T09:17:22.143Z,98.32
2018-01-18T09:19:49.657Z,99.80
2018-01-18T09:22:17.157Z,98.32
2018-01-18T09:24:44.810Z,98.42
2018-01-18T09:27:12.302Z,98.40
2018-01-18T09:29:39.803Z,98.17
2018-01-18T09:32:07.315Z,98.21
2018-01-18T09:34:34.831Z,97.58
2018-01-18T09:37:02.316Z,97.34
2018-01-18T09:39:29.796Z,99.67
2018-01-18T09:41:57.293Z,98.71
2018-01-18T09:44:24.798Z,99.55
2018-01-18T09:46:52.308Z,98.42
2018-01-18T09:49:20.308Z,99.88
2018-01-18T09:51:48.548Z,97.72
2018-01-18T09:54:16.041Z,97.69
2018-01-18T09:56:43.555Z,96.73
2018-01-18T09:59:11.058Z,97.20
2018-01-18T10:01:38.557Z,96.99
2018-01-18T10:04:06.048Z,97.09
2018-01-18T10:06:33.522Z,95.68
2018-01-18T10:09:01.020Z,96.71
2018-01-18T10:11:29.370Z,98.31
2018-01-18T10:13:56.887Z,96.58
2018-01-18T10:16:24.378Z,97.03
2018-01-18T10:18:52.632Z,97.52
2018-01-18T10:21:20.123Z,97.34
2018-01-18T10:23:48.288Z,95.47
2018-01-18T10:26:16.744Z,96.01
2018-01-18T10:28:44.259Z,95.03
2018-01-18T10:31:12.077Z,96.92
2018-01-18T10:33:39.557Z,97.15
2018-01-18T10:36:07.045Z,97.85
2018-01-18T10:38:34.551Z,96.66
2018-01-18T10:41:02.033Z,97.71
2018-01-18T10:43:29.516Z,98.41
2018-01-18T10:45:57.341Z,100.00
2018-01-18T10:48:24.829Z,99.91
2018-01-18T10:50:53.036Z,100.00
2018-01-18T10:53:20.570Z,100.00
2018-01-18T10:55:49.170Z,100.00
2018-01-18T10:58:16.665Z,99.75
2018-01-18T11:00:44.206Z,100.00
2018-01-18T11:03:11.728Z,100.00
2018-01-18T11:05:39.212Z,100.00
2018-01-18T11:08:06.763Z,100.00
2018-01-18T11:10:34.273Z,100.00
2018-01-18T11:13:02.529Z,100.00
2018-01-18T11:15:30.032Z,100.00
2018-01-18T11:17:57.523Z,100.00
2018-01-18T11:20:25.048Z,99.10
2018-01-18T11:22:52.532Z,98.94
2018-01-18T11:25:20.045Z,99.78
2018-01-18T11:27:47.532Z,99.40
2018-01-18T11:30:15.020Z,99.41
2018-01-18T11:32:42.518Z,98.98
2018-01-18T11:35:09.983Z,98.28
2018-01-18T11:37:37.468Z,99.00
2018-01-18T11:40:05.403Z,98.80
2018-01-18T11:42:37.939Z,98.43
2018-01-18T11:45:05.441Z,97.33
2018-01-18T11:47:32.936Z,96.73
2018-01-18T11:50:00.428Z,96.74
2018-01-18T11:52:27.917Z,95.93
2018-01-18T11:54:55.406Z,97.05
2018-01-18T11:57:22.915Z,97.12
2018-01-18T11:59:50.498Z,97.34
2018-01-18T12:02:17.996Z,94.05
2018-01-18T12:04:46.346Z,90.99
2018-01-18T12:07:13.827Z,85.44
2018-01-18T12:09:41.304Z,82.09
2018-01-18T12:12:08.950Z,80.22
2018-01-18T12:14:36.450Z,77.24
2018-01-18T12:17:03.940Z,75.82
2018-01-18T12:19:31.428Z,76.37
2018-01-18T12:21:58.924Z,76.49
2018-01-18T12:24:26.420Z,75.35
2018-01-18T12:26:54.041Z,76.81
2018-01-18T12:29:21.564Z,79.62
2018-01-18T12:31:49.049Z,81.37
2018-01-18T12:34:16.622Z,81.15
2018-01-18T12:36:45.311Z,82.64
2018-01-18T12:39:12.875Z,85.39
2018-01-18T12:41:40.439Z,84.77
2018-01-18T12:44:07.944Z,85.12
2018-01-18T12:46:35.435Z,86.26
2018-01-18T12:49:02.961Z,87.64
2018-01-18T12:51:30.516Z,88.56
2018-01-18T12:53:58.218Z,89.60
2018-01-18T12:56:25.776Z,91.59
2018-01-18T12:58:53.368Z,92.66
2018-01-18T13:01:21.528Z,93.43
2018-01-18T13:03:49.053Z,93.23
2018-01-18T13:06:16.547Z,94.57
2018-01-18T13:08:44.716Z,95.66
2018-01-18T13:11:12.248Z,97.62
2018-01-18T13:13:40.016Z,96.54
2018-01-18T13:16:07.540Z,98.12
2018-01-18T13:18:36.052Z,99.35
2018-01-18T13:21:03.548Z,99.85
2018-01-18T13:23:32.015Z,100.00
2018-01-18T13:25:59.896Z,100.00
2018-01-18T13:28:27.474Z,100.00
2018-01-18T13:30:55.010Z,100.00
2018-01-18T13:33:22.565Z,100.00
2018-01-18T13:35:50.112Z,100.00
2018-01-18T13:38:17.666Z,98.74
2018-01-18T13:40:45.204Z,98.93
2018-01-18T13:43:12.759Z,99.22
2018-01-18T13:45:40.261Z,98.43
2018-01-18T13:48:09.909Z,97.70
2018-01-18T13:50:37.451Z,99.18
2018-01-18T13:53:05.003Z,99.26
2018-01-18T13:55:32.516Z,98.28
2018-01-18T13:58:00.044Z,98.45
2018-01-18T14:00:27.557Z,98.64
2018-01-18T14:02:55.158Z,99.03
2018-01-18T14:05:22.690Z,99.92
2018-01-18T14:07:50.208Z,99.98
2018-01-18T14:10:17.741Z,100.00
2018-01-18T14:12:45.239Z,99.26
2018-01-18T14:15:12.784Z,99.50
2018-01-18T14:17:40.342Z,98.06
2018-01-18T14:20:07.926Z,97.96
2018-01-18T14:22:35.448Z,98.41
2018-01-18T14:25:02.959Z,97.59
2018-01-18T14:27:30.663Z,96.61
2018-01-18T14:29:58.160Z,95.46
2018-01-18T14:32:25.641Z,94.46
2018-01-18T14:34:53.212Z,94.46
2018-01-18T14:37:20.731Z,94.20
2018-01-18T14:39:48.240Z,94.56
2018-01-18T14:42:15.814Z,94.85
2018-01-18T14:44:43.320Z,94.22
2018-01-18T14:47:11.906Z,94.47
2018-01-18T14:49:39.557Z,94.50
2018-01-18T14:52:07.150Z,95.21
2018-01-18T14:54:34.740Z,94.16
2018-01-18T14:57:02.437Z,94.46
2018-01-18T14:59:29.945Z,93.75
2018-01-18T15:01:57.494Z,92.01
2018-01-18T15:04:25.042Z,92.03
2018-01-18T15:06:52.558Z,92.41
2018-01-18T15:09:20.088Z,91.47
2018-01-18T15:11:47.600Z,91.84
2018-01-18T15:14:15.121Z,92.61
2018-01-18T15:16:42.664Z,91.84
2018-01-18T15:19:10.204Z,91.38
2018-01-18T15:21:37.824Z,91.95
2018-01-18T15:24:05.340Z,92.36
2018-01-18T15:26:32.890Z,92.99
2018-01-18T15:29:00.396Z,92.90
2018-01-18T15:31:27.905Z,93.31
2018-01-18T15:33:55.457Z,92.21
2018-01-18T15:36:23.105Z,91.72
2018-01-18T15:38:50.746Z,92.72
2018-01-18T15:41:18.250Z,91.38
2018-01-18T15:43:45.771Z,92.46
2018-01-18T15:46:13.275Z,92.98
2018-01-18T15:48:40.794Z,92.81
2018-01-18T15:51:08.371Z,93.10
2018-01-18T15:53:35.866Z,92.87
2018-01-18T15:56:03.373Z,93.00
2018-01-18T15:58:30.852Z,93.15
2018-01-18T16:00:58.347Z,92.22
2018-01-18T16:03:25.872Z,92.03
2018-01-18T16:05:53.507Z,91.14
2018-01-18T16:08:21.026Z,90.75
2018-01-18T16:10:48.544Z,90.73
2018-01-18T16:13:16.034Z,90.84
2018-01-18T16:15:43.525Z,91.05
2018-01-18T16:18:11.018Z,90.55
2018-01-18T16:20:39.383Z,89.35
2018-01-18T16:23:07.002Z,89.55
2018-01-18T16:25:35.449Z,89.68
2018-01-18T16:28:02.972Z,89.98
2018-01-18T16:30:30.462Z,89.66
2018-01-18T16:32:58.930Z,89.46
2018-01-18T16:35:26.481Z,90.25
2018-01-18T16:37:53.984Z,91.05
2018-01-18T16:40:21.484Z,91.44
2018-01-18T16:42:49.161Z,91.14
2018-01-18T16:45:16.686Z,91.91
2018-01-18T16:47:44.430Z,93.01
2018-01-18T16:50:12.056Z,93.32
2018-01-18T16:52:40.179Z,94.07
2018-01-18T16:55:07.909Z,94.35
2018-01-18T16:57:35.527Z,93.31
2018-01-18T17:00:03.243Z,93.59
2018-01-18T17:02:30.906Z,94.86
2018-01-18T17:04:58.489Z,94.89
2018-01-18T17:07:26.122Z,95.70
2018-01-18T17:09:53.740Z,96.83
2018-01-18T17:12:22.751Z,98.03
2018-01-18T17:14:50.405Z,98.10
2018-01-18T17:17:18.774Z,98.25
2018-01-18T17:19:46.331Z,98.19
2018-01-18T17:22:13.888Z,97.64
2018-01-18T17:24:43.653Z,97.66
2018-01-18T17:27:11.245Z,97.56
2018-01-18T17:29:38.997Z,97.50
2018-01-18T17:32:06.580Z,97.62
2018-01-18T17:34:34.079Z,95.97
2018-01-18T17:37:01.590Z,95.67
2018-01-18T17:39:29.097Z,95.09
2018-01-18T17:41:56.852Z,95.10
2018-01-18T17:44:24.385Z,95.39
2018-01-18T17:46:51.898Z,94.72
2018-01-18T17:49:21.649Z,93.75
2018-01-18T17:51:49.697Z,93.22
2018-01-18T17:54:18.921Z,93.22
2018-01-18T17:56:46.427Z,93.54
2018-01-18T17:59:14.060Z,93.55
2018-01-18T18:01:41.572Z,94.33
2018-01-18T18:04:09.728Z,95.06
2018-01-18T18:06:37.360Z,95.85
2018-01-18T18:09:04.856Z,96.82
2018-01-18T18:11:32.394Z,97.09
2018-01-18T18:13:59.936Z,97.59
2018-01-18T18:16:27.431Z,97.74
2018-01-18T18:18:54.944Z,97.92
2018-01-18T18:21:22.591Z,98.39
2018-01-18T18:23:50.107Z,98.64
2018-01-18T18:26:18.243Z,98.81
2018-01-18T18:28:45.823Z,98.84
2018-01-18T18:31:13.380Z,99.19
2018-01-18T18:33:40.948Z,99.29
2018-01-18T18:36:08.473Z,99.60
2018-01-18T18:38:36.034Z,100.00
2018-01-18T18:41:03.516Z,100.00
2018-01-18T18:43:31.033Z,100.00
2018-01-18T18:45:58.565Z,100.00
2018-01-18T18:48:26.167Z,100.00
2018-01-18T18:50:53.676Z,100.00
2018-01-18T18:53:21.216Z,100.00
2018-01-18T18:55:48.752Z,100.00
2018-01-18T18:58:16.272Z,100.00
2018-01-18T19:00:43.824Z,100.00
2018-01-18T19:03:11.330Z,100.00
2018-01-18T19:05:38.842Z,100.00
2018-01-18T19:08:06.372Z,100.00
2018-01-18T19:10:33.905Z,100.00
2018-01-18T19:13:01.409Z,100.00
2018-01-18T19:15:28.928Z,100.00
2018-01-18T19:17:57.158Z,100.00
2018-01-18T19:20:24.722Z,100.00
2018-01-18T19:22:52.240Z,100.00
2018-01-18T19:25:20.122Z,100.00
2018-01-18T19:27:49.173Z,100.00
2018-01-18T19:30:16.704Z,100.00
2018-01-18T19:32:44.272Z,100.00
2018-01-18T19:35:11.756Z,100.00
2018-01-18T19:37:39.263Z,100.00
2018-01-18T19:40:06.811Z,100.00
2018-01-18T19:42:34.367Z,100.00
2018-01-18T19:45:01.950Z,100.00
2018-01-18T19:47:29.456Z,100.00
2018-01-18T19:49:57.223Z,100.00
2018-01-18T19:52:24.719Z,100.00
2018-01-18T19:54:52.244Z,100.00
2018-01-18T19:57:19.787Z,100.00
2018-01-18T19:59:47.291Z,100.00
2018-01-18T20:02:14.805Z,100.00
2018-01-18T20:04:42.382Z,100.00
2018-01-18T20:07:09.879Z,100.00
2018-01-18T20:09:37.420Z,100.00
2018-01-18T20:12:05.864Z,100.00
2018-01-18T20:14:33.417Z,100.00
2018-01-18T20:17:01.828Z,100.00
2018-01-18T20:19:29.325Z,100.00
2018-01-18T20:21:56.825Z,100.00
2018-01-18T20:24:24.429Z,100.00
2018-01-18T20:26:51.991Z,100.00
2018-01-18T20:29:19.541Z,100.00
2018-01-18T20:31:47.120Z,100.00
2018-01-18T20:34:14.658Z,100.00
2018-01-18T20:36:42.137Z,99.85
2018-01-18T20:39:09.656Z,98.79
2018-01-18T20:41:37.197Z,98.16
2018-01-18T20:44:04.705Z,97.57
2018-01-18T20:46:32.232Z,96.97
2018-01-18T20:48:59.745Z,96.97
2018-01-18T20:51:27.278Z,96.68
2018-01-18T20:53:54.838Z,96.40
2018-01-18T20:56:22.363Z,96.15
2018-01-18T20:58:49.900Z,95.90
2018-01-18T21:01:17.409Z,95.61
2018-01-18T21:03:45.140Z,95.42
2018-01-18T21:06:12.636Z,95.14
2018-01-18T21:08:40.139Z,94.82
2018-01-18T21:11:07.639Z,94.44
2018-01-18T21:13:35.120Z,94.63
2018-01-18T21:16:02.645Z,94.58
2018-01-18T21:18:30.133Z,95.10
2018-01-18T21:20:57.634Z,94.76
2018-01-18T21:23:25.619Z,94.57
2018-01-18T21:25:53.571Z,94.96
2018-01-18T21:28:21.305Z,94.54
2018-01-18T21:30:49.139Z,94.38
2018-01-18T21:33:16.632Z,94.46
2018-01-18T21:35:44.158Z,94.24
2018-01-18T21:38:11.648Z,94.58
2018-01-18T21:40:39.149Z,94.81
2018-01-18T21:43:06.643Z,95.24
2018-01-18T21:45:34.143Z,94.83
2018-01-18T21:48:01.645Z,94.89
2018-01-18T21:50:29.136Z,95.19
2018-01-18T21:52:56.660Z,95.12
2018-01-18T21:55:24.152Z,94.91
2018-01-18T21:57:51.715Z,95.29
2018-01-18T22:00:19.205Z,94.54
2018-01-18T22:02:46.687Z,95.09
2018-01-18T22:05:14.194Z,95.07
2018-01-18T22:07:41.695Z,95.24
2018-01-18T22:10:09.366Z,95.33
2018-01-18T22:12:37.822Z,95.12
2018-01-18T22:15:05.393Z,95.46
2018-01-18T22:17:32.895Z,95.30
2018-01-18T22:20:00.381Z,95.92
2018-01-18T22:22:27.895Z,96.04
2018-01-18T22:24:55.406Z,96.26
2018-01-18T22:27:22.934Z,96.00
2018-01-18T22:29:50.408Z,95.77
2018-01-18T22:32:17.886Z,95.82
2018-01-18T22:34:45.356Z,96.28
2018-01-18T22:37:12.836Z,95.82
2018-01-18T22:39:40.325Z,95.84
2018-01-18T22:42:07.821Z,95.72
2018-01-18T22:44:35.308Z,95.88
2018-01-18T22:47:02.879Z,96.02
2018-01-18T22:49:30.444Z,96.17
2018-01-18T22:51:57.952Z,96.13
2018-01-18T22:54:25.444Z,96.14
2018-01-18T22:56:52.920Z,96.12
2018-01-18T22:59:20.444Z,96.09
2018-01-18T23:01:47.934Z,96.55
2018-01-18T23:04:16.097Z,97.13
2018-01-18T23:06:43.595Z,96.94
2018-01-18T23:09:11.097Z,96.78
2018-01-18T23:11:38.572Z,97.32
2018-01-18T23:14:06.080Z,97.34
2018-01-18T23:16:33.567Z,97.28
2018-01-18T23:19:01.078Z,97.17
2018-01-18T23:21:28.588Z,97.11
2018-01-18T23:23:56.261Z,97.29
2018-01-18T23:26:23.754Z,97.03
2018-01-18T23:28:51.301Z,97.42
2018-01-18T23:31:18.806Z,97.90
2018-01-18T23:33:46.302Z,97.91
2018-01-18T23:36:13.780Z,98.00
2018-01-18T23:38:41.501Z,98.17
2018-01-18T23:41:08.985Z,98.78
2018-01-18T23:43:36.481Z,98.77
2018-01-18T23:46:03.976Z,98.91
2018-01-18T23:48:31.479Z,99.24
2018-01-18T23:50:58.970Z,99.33
2018-01-18T23:53:26.462Z,99.56
2018-01-18T23:55:53.987Z,99.32
2018-01-18T23:58:21.474Z,99.53
